sensor_id;sensor_type;location;lat;lon;timestamp;P1;durP1;ratioP1;P2;durP2;ratioP2
53245;SDS011;39569;51.090;-1.786;2023-09-12T00:02:12;5.07;;;4.75;;
53245;SDS011;39569;51.090;-1.786;2023-09-12T00:04:39;5.68;;;4.95;;
53245;SDS011;39569;51.090;-1.786;2023-09-12T00:07:06;11.65;;;4.88;;
53245;SDS011;39569;51.090;-1.786;2023-09-12T00:09:32;5.82;;;5.15;;
53245;SDS011;39569;51.090;-1.786;2023-09-12T00:12:01;5.47;;;4.97;;
53245;SDS011;39569;51.090;-1.786;2023-09-12T00:14:27;5.82;;;4.72;;
53245;SDS011;39569;51.090;-1.786;2023-09-12T00:16:54;4.90;;;4.35;;
53245;SDS011;39569;51.090;-1.786;2023-09-12T00:19:21;6.55;;;4.88;;
53245;SDS011;39569;51.090;-1.786;2023-09-12T00:21:48;5.40;;;4.90;;
53245;SDS011;39569;51.090;-1.786;2023-09-12T00:24:15;4.70;;;4.13;;
53245;SDS011;39569;51.090;-1.786;2023-09-12T00:26:42;6.40;;;4.95;;
53245;SDS011;39569;51.090;-1.786;2023-09-12T00:29:10;4.75;;;4.40;;
53245;SDS011;39569;51.090;-1.786;2023-09-12T00:31:37;4.75;;;4.35;;
53245;SDS011;39569;51.090;-1.786;2023-09-12T00:34:04;4.88;;;4.43;;
53245;SDS011;39569;51.090;-1.786;2023-09-12T00:36:31;10.48;;;4.28;;
53245;SDS011;39569;51.090;-1.786;2023-09-12T00:38:58;7.30;;;4.90;;
53245;SDS011;39569;51.090;-1.786;2023-09-12T00:41:25;5.20;;;4.25;;
53245;SDS011;39569;51.090;-1.786;2023-09-12T00:43:51;4.28;;;3.45;;
53245;SDS011;39569;51.090;-1.786;2023-09-12T00:46:19;3.67;;;3.38;;
53245;SDS011;39569;51.090;-1.786;2023-09-12T00:48:49;4.93;;;4.43;;
53245;SDS011;39569;51.090;-1.786;2023-09-12T00:51:17;4.75;;;4.00;;
53245;SDS011;39569;51.090;-1.786;2023-09-12T00:53:46;3.45;;;3.25;;
53245;SDS011;39569;51.090;-1.786;2023-09-12T00:56:13;8.52;;;4.40;;
53245;SDS011;39569;51.090;-1.786;2023-09-12T00:58:40;4.70;;;3.35;;
53245;SDS011;39569;51.090;-1.786;2023-09-12T01:01:07;4.05;;;3.47;;
53245;SDS011;39569;51.090;-1.786;2023-09-12T01:03:35;3.95;;;3.35;;
53245;SDS011;39569;51.090;-1.786;2023-09-12T01:06:02;3.67;;;3.35;;
53245;SDS011;39569;51.090;-1.786;2023-09-12T01:08:30;3.80;;;3.50;;
53245;SDS011;39569;51.090;-1.786;2023-09-12T01:10:57;4.82;;;3.25;;
53245;SDS011;39569;51.090;-1.786;2023-09-12T01:13:25;6.53;;;2.85;;
53245;SDS011;39569;51.090;-1.786;2023-09-12T01:15:52;3.70;;;2.95;;
53245;SDS011;39569;51.090;-1.786;2023-09-12T01:18:19;2.78;;;2.60;;
53245;SDS011;39569;51.090;-1.786;2023-09-12T01:20:50;4.60;;;2.80;;
53245;SDS011;39569;51.090;-1.786;2023-09-12T01:23:44;3.92;;;3.50;;
53245;SDS011;39569;51.090;-1.786;2023-09-12T01:26:25;3.33;;;3.13;;
53245;SDS011;39569;51.090;-1.786;2023-09-12T01:29:08;6.05;;;3.65;;
53245;SDS011;39569;51.090;-1.786;2023-09-12T01:31:38;14.70;;;3.15;;
53245;SDS011;39569;51.090;-1.786;2023-09-12T01:34:09;7.13;;;3.72;;
53245;SDS011;39569;51.090;-1.786;2023-09-12T01:36:36;3.53;;;3.33;;
53245;SDS011;39569;51.090;-1.786;2023-09-12T01:39:02;2.22;;;2.05;;
53245;SDS011;39569;51.090;-1.786;2023-09-12T01:41:30;3.47;;;3.17;;
53245;SDS011;39569;51.090;-1.786;2023-09-12T01:44:00;3.10;;;2.28;;
53245;SDS011;39569;51.090;-1.786;2023-09-12T01:46:31;6.18;;;2.88;;
53245;SDS011;39569;51.090;-1.786;2023-09-12T01:49:00;2.95;;;2.75;;
53245;SDS011;39569;51.090;-1.786;2023-09-12T01:51:29;2.55;;;2.22;;
53245;SDS011;39569;51.090;-1.786;2023-09-12T01:53:56;2.78;;;2.58;;
53245;SDS011;39569;51.090;-1.786;2023-09-12T01:56:24;3.85;;;2.40;;
53245;SDS011;39569;51.090;-1.786;2023-09-12T01:58:52;2.95;;;1.80;;
53245;SDS011;39569;51.090;-1.786;2023-09-12T02:01:18;2.80;;;2.58;;
53245;SDS011;39569;51.090;-1.786;2023-09-12T02:03:47;2.80;;;2.60;;
53245;SDS011;39569;51.090;-1.786;2023-09-12T02:06:15;2.70;;;2.33;;
53245;SDS011;39569;51.090;-1.786;2023-09-12T02:08:42;8.43;;;2.20;;
53245;SDS011;39569;51.090;-1.786;2023-09-12T02:11:08;2.67;;;2.40;;
53245;SDS011;39569;51.090;-1.786;2023-09-12T02:13:35;2.55;;;2.45;;
53245;SDS011;39569;51.090;-1.786;2023-09-12T02:16:02;1.92;;;1.83;;
53245;SDS011;39569;51.090;-1.786;2023-09-12T02:18:29;2.90;;;2.47;;
53245;SDS011;39569;51.090;-1.786;2023-09-12T02:20:57;2.15;;;2.00;;
53245;SDS011;39569;51.090;-1.786;2023-09-12T02:23:24;2.35;;;2.25;;
53245;SDS011;39569;51.090;-1.786;2023-09-12T02:25:51;3.88;;;2.85;;
53245;SDS011;39569;51.090;-1.786;2023-09-12T02:28:18;1.98;;;1.88;;
53245;SDS011;39569;51.090;-1.786;2023-09-12T02:30:45;2.03;;;1.88;;
53245;SDS011;39569;51.090;-1.786;2023-09-12T02:33:11;2.63;;;2.42;;
53245;SDS011;39569;51.090;-1.786;2023-09-12T02:35:38;2.38;;;2.17;;
53245;SDS011;39569;51.090;-1.786;2023-09-12T02:38:06;1.90;;;1.80;;
53245;SDS011;39569;51.090;-1.786;2023-09-12T02:40:33;2.15;;;1.65;;
53245;SDS011;39569;51.090;-1.786;2023-09-12T02:43:00;1.48;;;1.38;;
53245;SDS011;39569;51.090;-1.786;2023-09-12T02:45:27;1.80;;;1.70;;
53245;SDS011;39569;51.090;-1.786;2023-09-12T02:47:53;2.15;;;1.38;;
53245;SDS011;39569;51.090;-1.786;2023-09-12T02:50:20;1.60;;;1.50;;
53245;SDS011;39569;51.090;-1.786;2023-09-12T02:52:47;1.60;;;1.50;;
53245;SDS011;39569;51.090;-1.786;2023-09-12T02:55:15;1.40;;;1.30;;
53245;SDS011;39569;51.090;-1.786;2023-09-12T02:57:42;2.38;;;1.70;;
53245;SDS011;39569;51.090;-1.786;2023-09-12T03:00:08;1.70;;;1.60;;
53245;SDS011;39569;51.090;-1.786;2023-09-12T03:02:36;3.15;;;1.95;;
53245;SDS011;39569;51.090;-1.786;2023-09-12T03:05:03;1.63;;;1.52;;
53245;SDS011;39569;51.090;-1.786;2023-09-12T03:07:30;1.70;;;1.60;;
53245;SDS011;39569;51.090;-1.786;2023-09-12T03:09:57;1.55;;;1.45;;
53245;SDS011;39569;51.090;-1.786;2023-09-12T03:12:25;1.75;;;1.30;;
53245;SDS011;39569;51.090;-1.786;2023-09-12T03:14:52;2.28;;;2.17;;
53245;SDS011;39569;51.090;-1.786;2023-09-12T03:17:18;1.75;;;1.65;;
53245;SDS011;39569;51.090;-1.786;2023-09-12T03:19:45;1.33;;;1.33;;
53245;SDS011;39569;51.090;-1.786;2023-09-12T03:22:12;3.08;;;1.77;;
53245;SDS011;39569;51.090;-1.786;2023-09-12T03:24:38;2.17;;;1.83;;
53245;SDS011;39569;51.090;-1.786;2023-09-12T03:27:05;2.85;;;2.30;;
53245;SDS011;39569;51.090;-1.786;2023-09-12T03:29:34;4.78;;;1.85;;
53245;SDS011;39569;51.090;-1.786;2023-09-12T03:32:01;2.72;;;2.53;;
53245;SDS011;39569;51.090;-1.786;2023-09-12T03:34:27;2.15;;;1.95;;
53245;SDS011;39569;51.090;-1.786;2023-09-12T03:36:55;3.42;;;2.03;;
53245;SDS011;39569;51.090;-1.786;2023-09-12T03:39:22;2.40;;;2.15;;
53245;SDS011;39569;51.090;-1.786;2023-09-12T03:41:48;2.10;;;2.00;;
53245;SDS011;39569;51.090;-1.786;2023-09-12T03:44:15;2.58;;;2.47;;
53245;SDS011;39569;51.090;-1.786;2023-09-12T03:46:43;2.47;;;2.28;;
53245;SDS011;39569;51.090;-1.786;2023-09-12T03:49:10;3.05;;;2.38;;
53245;SDS011;39569;51.090;-1.786;2023-09-12T03:51:36;1.92;;;1.25;;
53245;SDS011;39569;51.090;-1.786;2023-09-12T03:54:04;3.15;;;2.13;;
53245;SDS011;39569;51.090;-1.786;2023-09-12T03:56:30;3.58;;;2.60;;
53245;SDS011;39569;51.090;-1.786;2023-09-12T03:58:57;1.95;;;1.85;;
53245;SDS011;39569;51.090;-1.786;2023-09-12T04:01:25;2.17;;;2.03;;
53245;SDS011;39569;51.090;-1.786;2023-09-12T04:03:53;3.67;;;2.88;;
53245;SDS011;39569;51.090;-1.786;2023-09-12T04:06:19;2.85;;;2.65;;
53245;SDS011;39569;51.090;-1.786;2023-09-12T04:08:46;2.60;;;2.03;;
53245;SDS011;39569;51.090;-1.786;2023-09-12T04:11:13;1.77;;;1.67;;
53245;SDS011;39569;51.090;-1.786;2023-09-12T04:13:39;2.45;;;1.95;;
53245;SDS011;39569;51.090;-1.786;2023-09-12T04:16:06;2.08;;;1.98;;
53245;SDS011;39569;51.090;-1.786;2023-09-12T04:18:33;2.15;;;1.92;;
53245;SDS011;39569;51.090;-1.786;2023-09-12T04:21:01;3.28;;;2.25;;
53245;SDS011;39569;51.090;-1.786;2023-09-12T04:23:28;3.13;;;2.10;;
53245;SDS011;39569;51.090;-1.786;2023-09-12T04:25:55;2.28;;;2.17;;
53245;SDS011;39569;51.090;-1.786;2023-09-12T04:28:25;2.45;;;2.28;;
53245;SDS011;39569;51.090;-1.786;2023-09-12T04:30:52;1.90;;;1.80;;
53245;SDS011;39569;51.090;-1.786;2023-09-12T04:33:27;3.67;;;3.05;;
53245;SDS011;39569;51.090;-1.786;2023-09-12T04:35:54;2.22;;;2.03;;
53245;SDS011;39569;51.090;-1.786;2023-09-12T04:38:24;1.75;;;1.65;;
53245;SDS011;39569;51.090;-1.786;2023-09-12T04:40:53;2.17;;;2.03;;
53245;SDS011;39569;51.090;-1.786;2023-09-12T04:43:20;2.50;;;2.30;;
53245;SDS011;39569;51.090;-1.786;2023-09-12T04:45:47;2.63;;;2.42;;
53245;SDS011;39569;51.090;-1.786;2023-09-12T04:48:14;2.17;;;2.03;;
53245;SDS011;39569;51.090;-1.786;2023-09-12T04:50:41;2.13;;;2.03;;
53245;SDS011;39569;51.090;-1.786;2023-09-12T04:53:07;4.55;;;2.17;;
53245;SDS011;39569;51.090;-1.786;2023-09-12T04:55:36;2.90;;;1.80;;
53245;SDS011;39569;51.090;-1.786;2023-09-12T04:58:04;2.20;;;2.00;;
53245;SDS011;39569;51.090;-1.786;2023-09-12T05:00:31;2.55;;;2.35;;
53245;SDS011;39569;51.090;-1.786;2023-09-12T05:02:58;2.78;;;2.58;;
53245;SDS011;39569;51.090;-1.786;2023-09-12T05:05:25;2.63;;;2.42;;
53245;SDS011;39569;51.090;-1.786;2023-09-12T05:07:52;1.83;;;1.73;;
53245;SDS011;39569;51.090;-1.786;2023-09-12T05:10:19;3.60;;;2.28;;
53245;SDS011;39569;51.090;-1.786;2023-09-12T05:12:47;3.17;;;2.35;;
53245;SDS011;39569;51.090;-1.786;2023-09-12T05:15:13;2.35;;;2.22;;
53245;SDS011;39569;51.090;-1.786;2023-09-12T05:17:40;2.30;;;2.00;;
53245;SDS011;39569;51.090;-1.786;2023-09-12T05:20:07;2.30;;;2.10;;
53245;SDS011;39569;51.090;-1.786;2023-09-12T05:22:36;2.53;;;2.35;;
53245;SDS011;39569;51.090;-1.786;2023-09-12T05:25:03;4.38;;;2.80;;
53245;SDS011;39569;51.090;-1.786;2023-09-12T05:27:30;2.63;;;2.42;;
53245;SDS011;39569;51.090;-1.786;2023-09-12T05:29:58;2.83;;;2.40;;
53245;SDS011;39569;51.090;-1.786;2023-09-12T05:32:24;3.25;;;3.05;;
53245;SDS011;39569;51.090;-1.786;2023-09-12T05:34:51;3.75;;;3.45;;
53245;SDS011;39569;51.090;-1.786;2023-09-12T05:37:18;2.80;;;2.60;;
53245;SDS011;39569;51.090;-1.786;2023-09-12T05:39:46;3.70;;;3.45;;
53245;SDS011;39569;51.090;-1.786;2023-09-12T05:42:12;4.25;;;3.83;;
53245;SDS011;39569;51.090;-1.786;2023-09-12T05:44:40;4.57;;;3.10;;
53245;SDS011;39569;51.090;-1.786;2023-09-12T05:47:08;5.47;;;3.47;;
53245;SDS011;39569;51.090;-1.786;2023-09-12T05:49:35;3.13;;;2.88;;
53245;SDS011;39569;51.090;-1.786;2023-09-12T05:52:02;3.10;;;2.75;;
53245;SDS011;39569;51.090;-1.786;2023-09-12T05:54:29;9.85;;;3.10;;
53245;SDS011;39569;51.090;-1.786;2023-09-12T05:56:56;5.13;;;3.28;;
53245;SDS011;39569;51.090;-1.786;2023-09-12T05:59:23;4.40;;;3.45;;
53245;SDS011;39569;51.090;-1.786;2023-09-12T06:01:49;3.30;;;3.03;;
53245;SDS011;39569;51.090;-1.786;2023-09-12T06:04:18;3.65;;;2.72;;
53245;SDS011;39569;51.090;-1.786;2023-09-12T06:06:45;2.45;;;2.30;;
53245;SDS011;39569;51.090;-1.786;2023-09-12T06:09:12;4.00;;;2.90;;
53245;SDS011;39569;51.090;-1.786;2023-09-12T06:11:39;2.63;;;2.10;;
53245;SDS011;39569;51.090;-1.786;2023-09-12T06:14:06;2.85;;;2.58;;
53245;SDS011;39569;51.090;-1.786;2023-09-12T06:16:32;2.88;;;2.67;;
53245;SDS011;39569;51.090;-1.786;2023-09-12T06:18:59;3.72;;;2.20;;
53245;SDS011;39569;51.090;-1.786;2023-09-12T06:21:27;2.75;;;2.55;;
53245;SDS011;39569;51.090;-1.786;2023-09-12T06:24:07;2.90;;;2.70;;
53245;SDS011;39569;51.090;-1.786;2023-09-12T06:26:36;2.70;;;2.50;;
53245;SDS011;39569;51.090;-1.786;2023-09-12T06:29:03;3.08;;;2.88;;
53245;SDS011;39569;51.090;-1.786;2023-09-12T06:31:30;3.45;;;3.25;;
53245;SDS011;39569;51.090;-1.786;2023-09-12T06:33:57;11.95;;;3.03;;
53245;SDS011;39569;51.090;-1.786;2023-09-12T06:36:24;3.53;;;3.13;;
53245;SDS011;39569;51.090;-1.786;2023-09-12T06:38:52;4.32;;;3.05;;
53245;SDS011;39569;51.090;-1.786;2023-09-12T06:41:19;3.10;;;2.90;;
53245;SDS011;39569;51.090;-1.786;2023-09-12T06:43:46;3.40;;;3.20;;
53245;SDS011;39569;51.090;-1.786;2023-09-12T06:46:14;3.53;;;3.05;;
53245;SDS011;39569;51.090;-1.786;2023-09-12T06:48:42;3.30;;;3.00;;
53245;SDS011;39569;51.090;-1.786;2023-09-12T06:51:09;3.20;;;2.92;;
53245;SDS011;39569;51.090;-1.786;2023-09-12T06:53:36;2.78;;;2.58;;
53245;SDS011;39569;51.090;-1.786;2023-09-12T06:56:05;5.53;;;3.08;;
53245;SDS011;39569;51.090;-1.786;2023-09-12T06:58:31;5.45;;;2.88;;
53245;SDS011;39569;51.090;-1.786;2023-09-12T07:01:01;9.57;;;2.80;;
53245;SDS011;39569;51.090;-1.786;2023-09-12T07:03:29;3.03;;;2.83;;
53245;SDS011;39569;51.090;-1.786;2023-09-12T07:05:56;7.20;;;3.17;;
53245;SDS011;39569;51.090;-1.786;2023-09-12T07:08:23;5.88;;;2.75;;
53245;SDS011;39569;51.090;-1.786;2023-09-12T07:10:50;3.75;;;2.72;;
53245;SDS011;39569;51.090;-1.786;2023-09-12T07:13:21;2.92;;;2.72;;
53245;SDS011;39569;51.090;-1.786;2023-09-12T07:15:48;2.88;;;2.63;;
53245;SDS011;39569;51.090;-1.786;2023-09-12T07:18:14;2.95;;;2.75;;
53245;SDS011;39569;51.090;-1.786;2023-09-12T07:20:41;2.63;;;2.42;;
53245;SDS011;39569;51.090;-1.786;2023-09-12T07:23:08;3.10;;;2.90;;
53245;SDS011;39569;51.090;-1.786;2023-09-12T07:25:38;2.08;;;1.98;;
53245;SDS011;39569;51.090;-1.786;2023-09-12T07:28:06;2.50;;;2.40;;
53245;SDS011;39569;51.090;-1.786;2023-09-12T07:30:34;6.00;;;3.15;;
53245;SDS011;39569;51.090;-1.786;2023-09-12T07:33:02;3.55;;;3.25;;
53245;SDS011;39569;51.090;-1.786;2023-09-12T07:35:29;6.68;;;3.47;;
53245;SDS011;39569;51.090;-1.786;2023-09-12T07:37:56;4.93;;;3.25;;
53245;SDS011;39569;51.090;-1.786;2023-09-12T07:40:23;2.47;;;2.30;;
53245;SDS011;39569;51.090;-1.786;2023-09-12T07:42:49;3.25;;;3.05;;
53245;SDS011;39569;51.090;-1.786;2023-09-12T07:45:16;2.78;;;2.55;;
53245;SDS011;39569;51.090;-1.786;2023-09-12T07:47:45;3.53;;;2.85;;
53245;SDS011;39569;51.090;-1.786;2023-09-12T07:50:11;9.27;;;2.75;;
53245;SDS011;39569;51.090;-1.786;2023-09-12T07:52:38;4.15;;;3.53;;
53245;SDS011;39569;51.090;-1.786;2023-09-12T07:55:06;11.00;;;2.10;;
53245;SDS011;39569;51.090;-1.786;2023-09-12T07:57:34;3.05;;;2.45;;
53245;SDS011;39569;51.090;-1.786;2023-09-12T08:00:01;4.32;;;2.42;;
53245;SDS011;39569;51.090;-1.786;2023-09-12T08:02:30;3.53;;;2.38;;
53245;SDS011;39569;51.090;-1.786;2023-09-12T08:04:58;2.72;;;2.53;;
53245;SDS011;39569;51.090;-1.786;2023-09-12T08:07:24;2.72;;;2.50;;
53245;SDS011;39569;51.090;-1.786;2023-09-12T08:09:52;3.95;;;2.42;;
53245;SDS011;39569;51.090;-1.786;2023-09-12T08:12:20;3.05;;;2.83;;
53245;SDS011;39569;51.090;-1.786;2023-09-12T08:14:48;7.50;;;3.30;;
53245;SDS011;39569;51.090;-1.786;2023-09-12T08:17:15;3.33;;;2.88;;
53245;SDS011;39569;51.090;-1.786;2023-09-12T08:19:42;3.08;;;2.88;;
53245;SDS011;39569;51.090;-1.786;2023-09-12T08:22:11;8.18;;;3.38;;
53245;SDS011;39569;51.090;-1.786;2023-09-12T08:24:38;13.77;;;4.05;;
53245;SDS011;39569;51.090;-1.786;2023-09-12T08:27:05;3.25;;;3.00;;
53245;SDS011;39569;51.090;-1.786;2023-09-12T08:29:34;3.88;;;3.58;;
53245;SDS011;39569;51.090;-1.786;2023-09-12T08:32:01;7.15;;;2.92;;
53245;SDS011;39569;51.090;-1.786;2023-09-12T08:34:28;3.55;;;3.25;;
53245;SDS011;39569;51.090;-1.786;2023-09-12T08:36:55;6.80;;;3.38;;
53245;SDS011;39569;51.090;-1.786;2023-09-12T08:39:24;3.92;;;3.50;;
53245;SDS011;39569;51.090;-1.786;2023-09-12T08:41:53;7.53;;;4.05;;
53245;SDS011;39569;51.090;-1.786;2023-09-12T08:44:20;3.15;;;2.90;;
53245;SDS011;39569;51.090;-1.786;2023-09-12T08:46:47;4.43;;;3.80;;
53245;SDS011;39569;51.090;-1.786;2023-09-12T08:49:14;4.43;;;3.08;;
53245;SDS011;39569;51.090;-1.786;2023-09-12T08:51:42;3.38;;;2.92;;
53245;SDS011;39569;51.090;-1.786;2023-09-12T08:54:09;4.97;;;2.83;;
53245;SDS011;39569;51.090;-1.786;2023-09-12T08:56:39;4.30;;;3.65;;
53245;SDS011;39569;51.090;-1.786;2023-09-12T08:59:07;5.20;;;3.63;;
53245;SDS011;39569;51.090;-1.786;2023-09-12T09:01:36;6.13;;;3.40;;
53245;SDS011;39569;51.090;-1.786;2023-09-12T09:04:03;3.20;;;2.95;;
53245;SDS011;39569;51.090;-1.786;2023-09-12T09:06:31;3.70;;;3.38;;
53245;SDS011;39569;51.090;-1.786;2023-09-12T09:09:02;3.65;;;3.35;;
53245;SDS011;39569;51.090;-1.786;2023-09-12T09:11:31;4.25;;;3.88;;
53245;SDS011;39569;51.090;-1.786;2023-09-12T09:14:00;5.65;;;3.83;;
53245;SDS011;39569;51.090;-1.786;2023-09-12T09:16:28;3.05;;;2.85;;
53245;SDS011;39569;51.090;-1.786;2023-09-12T09:18:56;3.75;;;3.40;;
53245;SDS011;39569;51.090;-1.786;2023-09-12T09:21:24;4.18;;;3.78;;
53245;SDS011;39569;51.090;-1.786;2023-09-12T09:23:52;7.28;;;6.15;;
53245;SDS011;39569;51.090;-1.786;2023-09-12T09:26:20;6.15;;;5.45;;
53245;SDS011;39569;51.090;-1.786;2023-09-12T09:29:02;6.63;;;6.13;;
53245;SDS011;39569;51.090;-1.786;2023-09-12T09:31:30;8.60;;;6.60;;
53245;SDS011;39569;51.090;-1.786;2023-09-12T09:33:58;3.97;;;3.63;;
53245;SDS011;39569;51.090;-1.786;2023-09-12T09:36:26;3.50;;;3.20;;
53245;SDS011;39569;51.090;-1.786;2023-09-12T09:38:53;3.53;;;2.97;;
53245;SDS011;39569;51.090;-1.786;2023-09-12T09:41:20;3.55;;;3.22;;
53245;SDS011;39569;51.090;-1.786;2023-09-12T09:43:48;4.32;;;3.05;;
53245;SDS011;39569;51.090;-1.786;2023-09-12T09:46:17;7.65;;;3.05;;
53245;SDS011;39569;51.090;-1.786;2023-09-12T09:48:48;4.13;;;3.75;;
53245;SDS011;39569;51.090;-1.786;2023-09-12T09:51:16;3.25;;;2.97;;
53245;SDS011;39569;51.090;-1.786;2023-09-12T09:53:43;5.00;;;2.58;;
53245;SDS011;39569;51.090;-1.786;2023-09-12T09:56:10;3.63;;;3.33;;
53245;SDS011;39569;51.090;-1.786;2023-09-12T09:58:42;4.95;;;3.10;;
53245;SDS011;39569;51.090;-1.786;2023-09-12T10:01:14;6.07;;;2.35;;
53245;SDS011;39569;51.090;-1.786;2023-09-12T10:03:45;2.65;;;2.45;;
53245;SDS011;39569;51.090;-1.786;2023-09-12T10:06:14;3.22;;;2.50;;
53245;SDS011;39569;51.090;-1.786;2023-09-12T10:08:43;3.22;;;2.97;;
53245;SDS011;39569;51.090;-1.786;2023-09-12T10:11:10;2.47;;;2.38;;
53245;SDS011;39569;51.090;-1.786;2023-09-12T10:13:40;4.82;;;3.33;;
53245;SDS011;39569;51.090;-1.786;2023-09-12T10:16:24;9.07;;;2.90;;
53245;SDS011;39569;51.090;-1.786;2023-09-12T10:18:56;2.80;;;2.60;;
53245;SDS011;39569;51.090;-1.786;2023-09-12T10:21:28;2.00;;;1.90;;
53245;SDS011;39569;51.090;-1.786;2023-09-12T10:23:56;2.55;;;2.35;;
53245;SDS011;39569;51.090;-1.786;2023-09-12T10:26:24;2.60;;;2.35;;
53245;SDS011;39569;51.090;-1.786;2023-09-12T10:28:52;3.35;;;2.58;;
53245;SDS011;39569;51.090;-1.786;2023-09-12T10:31:20;2.90;;;2.70;;
53245;SDS011;39569;51.090;-1.786;2023-09-12T10:33:51;2.72;;;2.55;;
53245;SDS011;39569;51.090;-1.786;2023-09-12T10:36:18;3.40;;;3.10;;
53245;SDS011;39569;51.090;-1.786;2023-09-12T10:38:47;3.42;;;2.53;;
53245;SDS011;39569;51.090;-1.786;2023-09-12T10:41:15;2.72;;;2.50;;
53245;SDS011;39569;51.090;-1.786;2023-09-12T10:43:43;6.55;;;2.70;;
53245;SDS011;39569;51.090;-1.786;2023-09-12T10:46:14;2.30;;;2.20;;
53245;SDS011;39569;51.090;-1.786;2023-09-12T10:48:41;2.45;;;2.20;;
53245;SDS011;39569;51.090;-1.786;2023-09-12T10:51:10;1.98;;;1.88;;
53245;SDS011;39569;51.090;-1.786;2023-09-12T10:53:38;5.03;;;2.85;;
53245;SDS011;39569;51.090;-1.786;2023-09-12T10:56:15;3.00;;;2.78;;
53245;SDS011;39569;51.090;-1.786;2023-09-12T11:01:37;8.57;;;2.85;;
53245;SDS011;39569;51.090;-1.786;2023-09-12T11:06:59;9.18;;;3.13;;
53245;SDS011;39569;51.090;-1.786;2023-09-12T11:09:27;2.63;;;2.42;;
53245;SDS011;39569;51.090;-1.786;2023-09-12T11:11:54;8.27;;;2.22;;
53245;SDS011;39569;51.090;-1.786;2023-09-12T11:14:23;5.30;;;2.92;;
53245;SDS011;39569;51.090;-1.786;2023-09-12T11:19:52;1.83;;;1.73;;
53245;SDS011;39569;51.090;-1.786;2023-09-12T11:22:24;3.22;;;2.70;;
53245;SDS011;39569;51.090;-1.786;2023-09-12T11:24:52;2.53;;;2.33;;
53245;SDS011;39569;51.090;-1.786;2023-09-12T11:27:21;4.55;;;3.22;;
53245;SDS011;39569;51.090;-1.786;2023-09-12T11:29:48;4.47;;;3.28;;
53245;SDS011;39569;51.090;-1.786;2023-09-12T11:32:25;2.38;;;2.28;;
53245;SDS011;39569;51.090;-1.786;2023-09-12T11:34:53;6.22;;;3.03;;
53245;SDS011;39569;51.090;-1.786;2023-09-12T11:37:25;5.30;;;2.90;;
53245;SDS011;39569;51.090;-1.786;2023-09-12T11:39:54;2.70;;;2.53;;
53245;SDS011;39569;51.090;-1.786;2023-09-12T11:42:22;5.40;;;3.45;;
53245;SDS011;39569;51.090;-1.786;2023-09-12T11:44:50;7.47;;;3.45;;
53245;SDS011;39569;51.090;-1.786;2023-09-12T11:47:18;3.90;;;3.45;;
53245;SDS011;39569;51.090;-1.786;2023-09-12T11:49:45;4.03;;;3.53;;
53245;SDS011;39569;51.090;-1.786;2023-09-12T11:52:13;3.67;;;3.38;;
53245;SDS011;39569;51.090;-1.786;2023-09-12T11:54:43;6.20;;;4.40;;
53245;SDS011;39569;51.090;-1.786;2023-09-12T11:57:11;9.20;;;4.97;;
53245;SDS011;39569;51.090;-1.786;2023-09-12T11:59:40;3.97;;;3.40;;
53245;SDS011;39569;51.090;-1.786;2023-09-12T12:02:10;4.78;;;4.38;;
53245;SDS011;39569;51.090;-1.786;2023-09-12T12:04:37;6.00;;;5.43;;
53245;SDS011;39569;51.090;-1.786;2023-09-12T12:07:04;4.47;;;4.18;;
53245;SDS011;39569;51.090;-1.786;2023-09-12T12:09:33;11.13;;;4.68;;
53245;SDS011;39569;51.090;-1.786;2023-09-12T12:12:08;6.25;;;3.78;;
53245;SDS011;39569;51.090;-1.786;2023-09-12T12:14:38;4.75;;;4.43;;
53245;SDS011;39569;51.090;-1.786;2023-09-12T12:17:05;7.35;;;5.25;;
53245;SDS011;39569;51.090;-1.786;2023-09-12T12:19:33;5.05;;;4.60;;
53245;SDS011;39569;51.090;-1.786;2023-09-12T12:22:01;4.53;;;4.07;;
53245;SDS011;39569;51.090;-1.786;2023-09-12T12:24:36;7.80;;;4.47;;
53245;SDS011;39569;51.090;-1.786;2023-09-12T12:27:03;9.85;;;4.45;;
53245;SDS011;39569;51.090;-1.786;2023-09-12T12:29:33;4.30;;;4.05;;
53245;SDS011;39569;51.090;-1.786;2023-09-12T12:32:00;3.65;;;3.45;;
53245;SDS011;39569;51.090;-1.786;2023-09-12T12:34:27;5.70;;;4.43;;
53245;SDS011;39569;51.090;-1.786;2023-09-12T12:36:55;4.63;;;4.22;;
53245;SDS011;39569;51.090;-1.786;2023-09-12T12:39:22;3.67;;;3.30;;
53245;SDS011;39569;51.090;-1.786;2023-09-12T12:41:51;3.47;;;3.15;;
53245;SDS011;39569;51.090;-1.786;2023-09-12T12:44:20;5.55;;;2.38;;
53245;SDS011;39569;51.090;-1.786;2023-09-12T12:46:48;3.97;;;2.47;;
53245;SDS011;39569;51.090;-1.786;2023-09-12T12:49:15;3.05;;;2.45;;
53245;SDS011;39569;51.090;-1.786;2023-09-12T12:51:42;3.60;;;3.25;;
53245;SDS011;39569;51.090;-1.786;2023-09-12T12:54:09;2.97;;;2.70;;
53245;SDS011;39569;51.090;-1.786;2023-09-12T12:56:35;2.58;;;2.47;;
53245;SDS011;39569;51.090;-1.786;2023-09-12T12:59:04;2.45;;;2.35;;
53245;SDS011;39569;51.090;-1.786;2023-09-12T13:01:35;2.90;;;2.70;;
53245;SDS011;39569;51.090;-1.786;2023-09-12T13:04:04;3.75;;;2.63;;
53245;SDS011;39569;51.090;-1.786;2023-09-12T13:06:32;2.42;;;2.30;;
53245;SDS011;39569;51.090;-1.786;2023-09-12T13:09:01;5.47;;;3.30;;
53245;SDS011;39569;51.090;-1.786;2023-09-12T13:11:29;7.40;;;2.33;;
53245;SDS011;39569;51.090;-1.786;2023-09-12T13:13:56;3.10;;;2.50;;
53245;SDS011;39569;51.090;-1.786;2023-09-12T13:16:23;2.95;;;2.63;;
53245;SDS011;39569;51.090;-1.786;2023-09-12T13:18:51;3.53;;;2.72;;
53245;SDS011;39569;51.090;-1.786;2023-09-12T13:21:18;3.97;;;2.97;;
53245;SDS011;39569;51.090;-1.786;2023-09-12T13:23:45;2.65;;;2.45;;
53245;SDS011;39569;51.090;-1.786;2023-09-12T13:26:12;3.53;;;3.22;;
53245;SDS011;39569;51.090;-1.786;2023-09-12T13:28:38;6.25;;;2.97;;
53245;SDS011;39569;51.090;-1.786;2023-09-12T13:31:05;3.40;;;3.20;;
53245;SDS011;39569;51.090;-1.786;2023-09-12T13:33:33;3.42;;;3.13;;
53245;SDS011;39569;51.090;-1.786;2023-09-12T13:36:01;2.60;;;2.40;;
53245;SDS011;39569;51.090;-1.786;2023-09-12T13:38:28;2.60;;;2.38;;
53245;SDS011;39569;51.090;-1.786;2023-09-12T13:40:55;3.67;;;3.35;;
53245;SDS011;39569;51.090;-1.786;2023-09-12T13:43:22;3.78;;;3.45;;
53245;SDS011;39569;51.090;-1.786;2023-09-12T13:45:49;5.05;;;3.58;;
53245;SDS011;39569;51.090;-1.786;2023-09-12T13:48:15;3.47;;;3.03;;
53245;SDS011;39569;51.090;-1.786;2023-09-12T13:50:43;2.25;;;2.13;;
53245;SDS011;39569;51.090;-1.786;2023-09-12T13:53:11;3.03;;;2.58;;
53245;SDS011;39569;51.090;-1.786;2023-09-12T13:55:38;4.50;;;2.70;;
53245;SDS011;39569;51.090;-1.786;2023-09-12T13:58:05;2.20;;;2.10;;
53245;SDS011;39569;51.090;-1.786;2023-09-12T14:00:32;2.08;;;1.92;;
53245;SDS011;39569;51.090;-1.786;2023-09-12T14:03:00;2.22;;;2.05;;
53245;SDS011;39569;51.090;-1.786;2023-09-12T14:05:28;5.72;;;3.38;;
53245;SDS011;39569;51.090;-1.786;2023-09-12T14:07:54;4.47;;;3.25;;
53245;SDS011;39569;51.090;-1.786;2023-09-12T14:10:22;2.67;;;2.47;;
53245;SDS011;39569;51.090;-1.786;2023-09-12T14:12:49;2.55;;;2.22;;
53245;SDS011;39569;51.090;-1.786;2023-09-12T14:15:16;2.60;;;2.40;;
53245;SDS011;39569;51.090;-1.786;2023-09-12T14:17:43;3.35;;;2.92;;
53245;SDS011;39569;51.090;-1.786;2023-09-12T14:20:10;2.72;;;2.42;;
53245;SDS011;39569;51.090;-1.786;2023-09-12T14:22:40;2.60;;;2.38;;
53245;SDS011;39569;51.090;-1.786;2023-09-12T14:25:07;2.05;;;1.95;;
53245;SDS011;39569;51.090;-1.786;2023-09-12T14:27:40;2.15;;;2.05;;
53245;SDS011;39569;51.090;-1.786;2023-09-12T14:30:08;2.58;;;2.38;;
53245;SDS011;39569;51.090;-1.786;2023-09-12T14:32:36;3.80;;;2.17;;
53245;SDS011;39569;51.090;-1.786;2023-09-12T14:35:04;2.60;;;2.40;;
53245;SDS011;39569;51.090;-1.786;2023-09-12T14:37:31;1.75;;;1.65;;
53245;SDS011;39569;51.090;-1.786;2023-09-12T14:39:57;3.60;;;2.90;;
53245;SDS011;39569;51.090;-1.786;2023-09-12T14:42:24;2.13;;;1.80;;
53245;SDS011;39569;51.090;-1.786;2023-09-12T14:44:55;2.38;;;2.13;;
53245;SDS011;39569;51.090;-1.786;2023-09-12T14:47:22;3.38;;;2.00;;